sensor_id;sensor_type;location;lat;lon;timestamp;P1;durP1;ratioP1;P2;durP2;ratioP2
46322;SDS011;32044;52.386;13.278;2023-12-14T00:01:16;33.65;;;15.65;;
46322;SDS011;32044;52.386;13.278;2023-12-14T00:03:43;31.20;;;14.70;;
46322;SDS011;32044;52.386;13.278;2023-12-14T00:06:11;29.83;;;14.90;;
46322;SDS011;32044;52.386;13.278;2023-12-14T00:08:40;35.10;;;15.80;;
46322;SDS011;32044;52.386;13.278;2023-12-14T00:11:08;42.08;;;17.38;;
46322;SDS011;32044;52.386;13.278;2023-12-14T00:13:36;39.88;;;17.23;;
46322;SDS011;32044;52.386;13.278;2023-12-14T00:16:04;38.13;;;17.55;;
46322;SDS011;32044;52.386;13.278;2023-12-14T00:18:31;35.20;;;16.23;;
46322;SDS011;32044;52.386;13.278;2023-12-14T00:20:59;37.13;;;17.02;;
46322;SDS011;32044;52.386;13.278;2023-12-14T00:23:26;38.28;;;16.90;;
46322;SDS011;32044;52.386;13.278;2023-12-14T00:25:55;52.42;;;19.33;;
46322;SDS011;32044;52.386;13.278;2023-12-14T00:28:23;45.90;;;18.60;;
46322;SDS011;32044;52.386;13.278;2023-12-14T00:30:55;39.78;;;19.27;;
46322;SDS011;32044;52.386;13.278;2023-12-14T00:33:23;43.53;;;20.02;;
46322;SDS011;32044;52.386;13.278;2023-12-14T00:35:51;55.90;;;21.67;;
46322;SDS011;32044;52.386;13.278;2023-12-14T00:38:18;50.35;;;21.05;;
46322;SDS011;32044;52.386;13.278;2023-12-14T00:40:45;62.85;;;23.65;;
46322;SDS011;32044;52.386;13.278;2023-12-14T00:43:14;45.17;;;20.73;;
46322;SDS011;32044;52.386;13.278;2023-12-14T00:45:42;44.95;;;19.55;;
46322;SDS011;32044;52.386;13.278;2023-12-14T00:48:09;48.08;;;20.42;;
46322;SDS011;32044;52.386;13.278;2023-12-14T00:50:37;61.00;;;24.38;;
46322;SDS011;32044;52.386;13.278;2023-12-14T00:53:04;59.53;;;22.98;;
46322;SDS011;32044;52.386;13.278;2023-12-14T00:55:32;63.38;;;26.10;;
46322;SDS011;32044;52.386;13.278;2023-12-14T00:57:59;58.67;;;24.20;;
46322;SDS011;32044;52.386;13.278;2023-12-14T01:00:28;71.20;;;27.00;;
46322;SDS011;32044;52.386;13.278;2023-12-14T01:02:57;70.72;;;25.92;;
46322;SDS011;32044;52.386;13.278;2023-12-14T01:05:24;62.85;;;24.42;;
46322;SDS011;32044;52.386;13.278;2023-12-14T01:07:52;85.35;;;27.50;;
46322;SDS011;32044;52.386;13.278;2023-12-14T01:10:20;73.10;;;25.98;;
46322;SDS011;32044;52.386;13.278;2023-12-14T01:12:47;68.47;;;27.25;;
46322;SDS011;32044;52.386;13.278;2023-12-14T01:15:15;76.22;;;27.27;;
46322;SDS011;32044;52.386;13.278;2023-12-14T01:17:43;62.08;;;23.73;;
46322;SDS011;32044;52.386;13.278;2023-12-14T01:20:11;52.85;;;23.45;;
46322;SDS011;32044;52.386;13.278;2023-12-14T01:22:39;64.28;;;24.73;;
46322;SDS011;32044;52.386;13.278;2023-12-14T01:25:06;84.45;;;24.98;;
46322;SDS011;32044;52.386;13.278;2023-12-14T01:27:34;56.08;;;25.17;;
46322;SDS011;32044;52.386;13.278;2023-12-14T01:30:01;71.35;;;25.98;;
46322;SDS011;32044;52.386;13.278;2023-12-14T01:32:29;72.13;;;25.52;;
46322;SDS011;32044;52.386;13.278;2023-12-14T01:34:58;75.47;;;26.00;;
46322;SDS011;32044;52.386;13.278;2023-12-14T01:37:26;72.55;;;25.45;;
46322;SDS011;32044;52.386;13.278;2023-12-14T01:39:53;70.28;;;25.77;;
46322;SDS011;32044;52.386;13.278;2023-12-14T01:42:21;70.93;;;27.48;;
46322;SDS011;32044;52.386;13.278;2023-12-14T01:44:48;94.30;;;29.40;;
46322;SDS011;32044;52.386;13.278;2023-12-14T01:47:15;75.68;;;27.75;;
46322;SDS011;32044;52.386;13.278;2023-12-14T01:49:43;100.88;;;28.27;;
46322;SDS011;32044;52.386;13.278;2023-12-14T01:52:12;78.03;;;26.30;;
46322;SDS011;32044;52.386;13.278;2023-12-14T01:54:39;103.97;;;30.13;;
46322;SDS011;32044;52.386;13.278;2023-12-14T01:57:07;79.53;;;24.17;;
46322;SDS011;32044;52.386;13.278;2023-12-14T01:59:34;63.63;;;23.98;;
46322;SDS011;32044;52.386;13.278;2023-12-14T02:02:02;80.05;;;27.15;;
46322;SDS011;32044;52.386;13.278;2023-12-14T02:04:31;78.53;;;25.95;;
46322;SDS011;32044;52.386;13.278;2023-12-14T02:06:59;72.93;;;25.08;;
46322;SDS011;32044;52.386;13.278;2023-12-14T02:09:28;79.90;;;26.92;;
46322;SDS011;32044;52.386;13.278;2023-12-14T02:11:55;81.80;;;26.85;;
46322;SDS011;32044;52.386;13.278;2023-12-14T02:14:23;84.47;;;27.73;;
46322;SDS011;32044;52.386;13.278;2023-12-14T02:16:50;74.55;;;24.70;;
46322;SDS011;32044;52.386;13.278;2023-12-14T02:19:18;59.50;;;22.10;;
46322;SDS011;32044;52.386;13.278;2023-12-14T02:21:45;69.68;;;24.08;;
46322;SDS011;32044;52.386;13.278;2023-12-14T02:24:14;74.43;;;24.52;;
46322;SDS011;32044;52.386;13.278;2023-12-14T02:26:42;70.03;;;24.08;;
46322;SDS011;32044;52.386;13.278;2023-12-14T02:29:28;53.03;;;22.20;;
46322;SDS011;32044;52.386;13.278;2023-12-14T02:31:56;49.90;;;21.65;;
46322;SDS011;32044;52.386;13.278;2023-12-14T02:34:24;53.72;;;21.02;;
46322;SDS011;32044;52.386;13.278;2023-12-14T02:36:52;75.40;;;23.08;;
46322;SDS011;32044;52.386;13.278;2023-12-14T02:39:21;60.33;;;21.70;;
46322;SDS011;32044;52.386;13.278;2023-12-14T02:41:48;66.25;;;21.90;;
46322;SDS011;32044;52.386;13.278;2023-12-14T02:44:16;48.03;;;20.30;;
46322;SDS011;32044;52.386;13.278;2023-12-14T02:46:43;50.60;;;19.42;;
46322;SDS011;32044;52.386;13.278;2023-12-14T02:49:11;47.63;;;18.10;;
46322;SDS011;32044;52.386;13.278;2023-12-14T02:51:38;42.85;;;18.10;;
46322;SDS011;32044;52.386;13.278;2023-12-14T02:54:06;44.30;;;18.85;;
46322;SDS011;32044;52.386;13.278;2023-12-14T02:56:35;43.30;;;17.30;;
46322;SDS011;32044;52.386;13.278;2023-12-14T02:59:02;44.25;;;18.20;;
46322;SDS011;32044;52.386;13.278;2023-12-14T03:01:30;44.95;;;18.88;;
46322;SDS011;32044;52.386;13.278;2023-12-14T03:03:57;50.92;;;18.77;;
46322;SDS011;32044;52.386;13.278;2023-12-14T03:06:25;41.70;;;16.38;;
46322;SDS011;32044;52.386;13.278;2023-12-14T03:08:52;53.35;;;17.80;;
46322;SDS011;32044;52.386;13.278;2023-12-14T03:11:23;48.10;;;17.48;;
46322;SDS011;32044;52.386;13.278;2023-12-14T03:13:52;27.17;;;11.88;;
46322;SDS011;32044;52.386;13.278;2023-12-14T03:16:19;42.55;;;17.10;;
46322;SDS011;32044;52.386;13.278;2023-12-14T03:18:46;40.92;;;16.73;;
46322;SDS011;32044;52.386;13.278;2023-12-14T03:23:46;39.90;;;15.48;;
46322;SDS011;32044;52.386;13.278;2023-12-14T03:26:13;44.92;;;17.40;;
46322;SDS011;32044;52.386;13.278;2023-12-14T03:28:40;49.42;;;20.58;;
46322;SDS011;32044;52.386;13.278;2023-12-14T03:31:10;50.33;;;20.55;;
46322;SDS011;32044;52.386;13.278;2023-12-14T03:33:37;55.58;;;19.77;;
46322;SDS011;32044;52.386;13.278;2023-12-14T03:36:05;50.33;;;20.75;;
46322;SDS011;32044;52.386;13.278;2023-12-14T03:38:32;56.40;;;21.40;;
46322;SDS011;32044;52.386;13.278;2023-12-14T03:41:00;58.33;;;21.73;;
46322;SDS011;32044;52.386;13.278;2023-12-14T03:43:28;48.42;;;19.90;;
46322;SDS011;32044;52.386;13.278;2023-12-14T03:45:55;67.18;;;22.23;;
46322;SDS011;32044;52.386;13.278;2023-12-14T03:48:24;59.70;;;22.70;;
46322;SDS011;32044;52.386;13.278;2023-12-14T03:50:52;47.78;;;20.15;;
46322;SDS011;32044;52.386;13.278;2023-12-14T03:53:19;71.07;;;23.23;;
46322;SDS011;32044;52.386;13.278;2023-12-14T03:55:47;62.67;;;22.95;;
46322;SDS011;32044;52.386;13.278;2023-12-14T03:58:14;70.95;;;24.23;;
46322;SDS011;32044;52.386;13.278;2023-12-14T04:00:41;60.90;;;23.38;;
46322;SDS011;32044;52.386;13.278;2023-12-14T04:03:09;49.90;;;21.95;;
46322;SDS011;32044;52.386;13.278;2023-12-14T04:05:38;70.72;;;23.63;;
46322;SDS011;32044;52.386;13.278;2023-12-14T04:08:06;58.67;;;23.40;;
46322;SDS011;32044;52.386;13.278;2023-12-14T04:10:33;55.40;;;21.13;;
46322;SDS011;32044;52.386;13.278;2023-12-14T04:13:01;67.95;;;23.27;;
46322;SDS011;32044;52.386;13.278;2023-12-14T04:15:28;75.70;;;23.73;;
46322;SDS011;32044;52.386;13.278;2023-12-14T04:17:55;67.40;;;24.75;;
46322;SDS011;32044;52.386;13.278;2023-12-14T04:20:23;75.40;;;25.75;;
46322;SDS011;32044;52.386;13.278;2023-12-14T04:22:52;60.75;;;21.73;;
46322;SDS011;32044;52.386;13.278;2023-12-14T04:25:19;69.60;;;22.63;;
46322;SDS011;32044;52.386;13.278;2023-12-14T04:27:47;56.40;;;21.45;;
46322;SDS011;32044;52.386;13.278;2023-12-14T04:30:14;53.55;;;21.55;;
46322;SDS011;32044;52.386;13.278;2023-12-14T04:32:41;85.18;;;26.02;;
46322;SDS011;32044;52.386;13.278;2023-12-14T04:35:09;76.80;;;24.42;;
46322;SDS011;32044;52.386;13.278;2023-12-14T04:37:37;54.13;;;21.67;;
46322;SDS011;32044;52.386;13.278;2023-12-14T04:40:06;67.10;;;22.92;;
46322;SDS011;32044;52.386;13.278;2023-12-14T04:42:34;53.05;;;21.25;;
46322;SDS011;32044;52.386;13.278;2023-12-14T04:45:02;73.88;;;22.63;;
46322;SDS011;32044;52.386;13.278;2023-12-14T04:47:30;45.03;;;19.38;;
46322;SDS011;32044;52.386;13.278;2023-12-14T04:49:57;50.42;;;20.17;;
46322;SDS011;32044;52.386;13.278;2023-12-14T04:52:25;60.33;;;22.23;;
46322;SDS011;32044;52.386;13.278;2023-12-14T04:54:52;69.03;;;23.42;;
46322;SDS011;32044;52.386;13.278;2023-12-14T04:57:21;60.70;;;21.08;;
46322;SDS011;32044;52.386;13.278;2023-12-14T04:59:48;59.00;;;19.98;;
46322;SDS011;32044;52.386;13.278;2023-12-14T05:02:16;60.92;;;20.88;;
46322;SDS011;32044;52.386;13.278;2023-12-14T05:04:43;55.53;;;19.98;;
46322;SDS011;32044;52.386;13.278;2023-12-14T05:07:11;71.95;;;20.75;;
46322;SDS011;32044;52.386;13.278;2023-12-14T05:09:38;58.85;;;20.27;;
46322;SDS011;32044;52.386;13.278;2023-12-14T05:12:06;56.58;;;20.17;;
46322;SDS011;32044;52.386;13.278;2023-12-14T05:14:34;67.13;;;20.42;;
46322;SDS011;32044;52.386;13.278;2023-12-14T05:17:02;56.03;;;19.48;;
46322;SDS011;32044;52.386;13.278;2023-12-14T05:19:31;52.60;;;17.85;;
46322;SDS011;32044;52.386;13.278;2023-12-14T05:22:02;48.25;;;17.45;;
46322;SDS011;32044;52.386;13.278;2023-12-14T05:24:29;45.20;;;16.60;;
46322;SDS011;32044;52.386;13.278;2023-12-14T05:26:57;49.42;;;18.13;;
46322;SDS011;32044;52.386;13.278;2023-12-14T05:29:24;44.75;;;18.25;;
46322;SDS011;32044;52.386;13.278;2023-12-14T05:31:53;73.70;;;21.38;;
46322;SDS011;32044;52.386;13.278;2023-12-14T05:34:20;54.75;;;19.23;;
46322;SDS011;32044;52.386;13.278;2023-12-14T05:36:48;57.00;;;20.45;;
46322;SDS011;32044;52.386;13.278;2023-12-14T05:39:15;65.38;;;20.00;;
46322;SDS011;32044;52.386;13.278;2023-12-14T05:41:42;52.53;;;18.17;;
46322;SDS011;32044;52.386;13.278;2023-12-14T05:44:10;43.45;;;18.13;;
46322;SDS011;32044;52.386;13.278;2023-12-14T05:46:37;55.53;;;19.05;;
46322;SDS011;32044;52.386;13.278;2023-12-14T05:49:06;46.08;;;18.27;;
46322;SDS011;32044;52.386;13.278;2023-12-14T05:51:34;41.83;;;17.23;;
46322;SDS011;32044;52.386;13.278;2023-12-14T05:54:05;62.63;;;19.88;;
46322;SDS011;32044;52.386;13.278;2023-12-14T05:56:33;59.08;;;18.52;;
46322;SDS011;32044;52.386;13.278;2023-12-14T05:59:04;61.28;;;18.85;;
46322;SDS011;32044;52.386;13.278;2023-12-14T06:01:32;47.58;;;17.00;;
46322;SDS011;32044;52.386;13.278;2023-12-14T06:03:59;43.78;;;17.58;;
46322;SDS011;32044;52.386;13.278;2023-12-14T06:06:29;42.92;;;16.73;;
46322;SDS011;32044;52.386;13.278;2023-12-14T06:08:57;45.42;;;17.38;;
46322;SDS011;32044;52.386;13.278;2023-12-14T06:11:24;50.03;;;18.17;;
46322;SDS011;32044;52.386;13.278;2023-12-14T06:13:52;51.22;;;18.15;;
46322;SDS011;32044;52.386;13.278;2023-12-14T06:16:19;41.38;;;16.25;;
46322;SDS011;32044;52.386;13.278;2023-12-14T06:18:46;41.05;;;17.33;;
46322;SDS011;32044;52.386;13.278;2023-12-14T06:21:14;50.33;;;18.27;;
46322;SDS011;32044;52.386;13.278;2023-12-14T06:23:43;38.05;;;17.40;;
46322;SDS011;32044;52.386;13.278;2023-12-14T06:26:11;41.03;;;16.55;;
46322;SDS011;32044;52.386;13.278;2023-12-14T06:28:38;50.03;;;18.20;;
46322;SDS011;32044;52.386;13.278;2023-12-14T06:31:05;40.75;;;17.83;;
46322;SDS011;32044;52.386;13.278;2023-12-14T06:33:34;43.15;;;16.90;;
46322;SDS011;32044;52.386;13.278;2023-12-14T06:36:02;41.80;;;16.98;;
46322;SDS011;32044;52.386;13.278;2023-12-14T06:38:30;34.10;;;16.42;;
46322;SDS011;32044;52.386;13.278;2023-12-14T06:40:59;40.67;;;16.60;;
46322;SDS011;32044;52.386;13.278;2023-12-14T06:43:28;42.45;;;15.95;;
46322;SDS011;32044;52.386;13.278;2023-12-14T06:45:55;38.42;;;15.70;;
46322;SDS011;32044;52.386;13.278;2023-12-14T06:48:23;41.35;;;16.95;;
46322;SDS011;32044;52.386;13.278;2023-12-14T06:50:50;25.25;;;13.82;;
46322;SDS011;32044;52.386;13.278;2023-12-14T06:53:21;33.20;;;15.85;;
46322;SDS011;32044;52.386;13.278;2023-12-14T06:55:48;30.35;;;15.10;;
46322;SDS011;32044;52.386;13.278;2023-12-14T06:58:17;29.80;;;16.33;;
46322;SDS011;32044;52.386;13.278;2023-12-14T07:00:45;29.88;;;14.85;;
46322;SDS011;32044;52.386;13.278;2023-12-14T07:03:12;31.15;;;15.52;;
46322;SDS011;32044;52.386;13.278;2023-12-14T07:05:41;27.65;;;14.73;;
46322;SDS011;32044;52.386;13.278;2023-12-14T07:08:09;25.83;;;14.88;;
46322;SDS011;32044;52.386;13.278;2023-12-14T07:10:36;33.78;;;15.80;;
46322;SDS011;32044;52.386;13.278;2023-12-14T07:13:03;29.67;;;14.82;;
46322;SDS011;32044;52.386;13.278;2023-12-14T07:15:32;26.17;;;14.45;;
46322;SDS011;32044;52.386;13.278;2023-12-14T07:18:00;25.35;;;13.50;;
46322;SDS011;32044;52.386;13.278;2023-12-14T07:20:27;25.67;;;13.60;;
46322;SDS011;32044;52.386;13.278;2023-12-14T07:22:55;27.77;;;14.30;;
46322;SDS011;32044;52.386;13.278;2023-12-14T07:25:22;25.30;;;13.95;;
46322;SDS011;32044;52.386;13.278;2023-12-14T07:27:50;26.80;;;13.57;;
46322;SDS011;32044;52.386;13.278;2023-12-14T07:30:18;24.48;;;14.85;;
46322;SDS011;32044;52.386;13.278;2023-12-14T07:32:46;23.48;;;13.18;;
46322;SDS011;32044;52.386;13.278;2023-12-14T07:35:14;24.95;;;12.95;;
46322;SDS011;32044;52.386;13.278;2023-12-14T07:37:41;21.35;;;12.70;;
46322;SDS011;32044;52.386;13.278;2023-12-14T07:40:09;24.13;;;13.68;;
46322;SDS011;32044;52.386;13.278;2023-12-14T07:42:37;24.38;;;13.82;;
46322;SDS011;32044;52.386;13.278;2023-12-14T07:45:05;21.38;;;12.48;;
46322;SDS011;32044;52.386;13.278;2023-12-14T07:47:34;22.75;;;12.82;;
46322;SDS011;32044;52.386;13.278;2023-12-14T07:50:04;20.20;;;12.27;;
46322;SDS011;32044;52.386;13.278;2023-12-14T07:52:31;24.73;;;12.73;;
46322;SDS011;32044;52.386;13.278;2023-12-14T07:54:59;20.98;;;12.55;;
46322;SDS011;32044;52.386;13.278;2023-12-14T07:57:27;20.08;;;13.38;;
46322;SDS011;32044;52.386;13.278;2023-12-14T07:59:54;24.80;;;13.18;;
46322;SDS011;32044;52.386;13.278;2023-12-14T08:02:21;21.88;;;13.48;;
46322;SDS011;32044;52.386;13.278;2023-12-14T08:04:49;21.90;;;13.20;;
46322;SDS011;32044;52.386;13.278;2023-12-14T08:07:18;22.23;;;14.45;;
46322;SDS011;32044;52.386;13.278;2023-12-14T08:09:45;23.95;;;13.07;;
46322;SDS011;32044;52.386;13.278;2023-12-14T08:12:12;19.10;;;12.60;;
46322;SDS011;32044;52.386;13.278;2023-12-14T08:14:40;22.15;;;13.77;;
46322;SDS011;32044;52.386;13.278;2023-12-14T08:17:10;27.25;;;14.43;;
46322;SDS011;32044;52.386;13.278;2023-12-14T08:19:37;17.45;;;12.43;;
46322;SDS011;32044;52.386;13.278;2023-12-14T08:22:05;20.23;;;13.05;;
46322;SDS011;32044;52.386;13.278;2023-12-14T08:24:35;20.95;;;13.18;;
46322;SDS011;32044;52.386;13.278;2023-12-14T08:27:02;18.52;;;12.68;;
46322;SDS011;32044;52.386;13.278;2023-12-14T08:29:29;21.65;;;13.25;;
46322;SDS011;32044;52.386;13.278;2023-12-14T08:31:57;21.83;;;12.93;;
46322;SDS011;32044;52.386;13.278;2023-12-14T08:34:26;20.00;;;12.70;;
46322;SDS011;32044;52.386;13.278;2023-12-14T08:36:53;19.83;;;13.57;;
46322;SDS011;32044;52.386;13.278;2023-12-14T08:39:21;21.30;;;13.52;;
46322;SDS011;32044;52.386;13.278;2023-12-14T08:41:49;21.63;;;13.32;;
46322;SDS011;32044;52.386;13.278;2023-12-14T08:44:17;20.48;;;12.85;;
46322;SDS011;32044;52.386;13.278;2023-12-14T08:46:45;22.73;;;14.27;;
46322;SDS011;32044;52.386;13.278;2023-12-14T08:49:13;21.23;;;13.23;;
46322;SDS011;32044;52.386;13.278;2023-12-14T08:51:41;21.95;;;13.98;;
46322;SDS011;32044;52.386;13.278;2023-12-14T08:54:09;22.38;;;13.73;;
46322;SDS011;32044;52.386;13.278;2023-12-14T08:56:37;22.02;;;13.15;;
46322;SDS011;32044;52.386;13.278;2023-12-14T08:59:05;24.15;;;14.25;;
46322;SDS011;32044;52.386;13.278;2023-12-14T09:01:34;24.40;;;13.93;;
46322;SDS011;32044;52.386;13.278;2023-12-14T09:04:01;21.23;;;13.57;;
46322;SDS011;32044;52.386;13.278;2023-12-14T09:06:29;27.10;;;15.57;;
46322;SDS011;32044;52.386;13.278;2023-12-14T09:08:57;24.48;;;14.90;;
46322;SDS011;32044;52.386;13.278;2023-12-14T09:11:24;25.65;;;15.05;;
46322;SDS011;32044;52.386;13.278;2023-12-14T09:13:52;24.85;;;15.27;;
46322;SDS011;32044;52.386;13.278;2023-12-14T09:16:20;23.23;;;14.70;;
46322;SDS011;32044;52.386;13.278;2023-12-14T09:18:48;25.15;;;14.60;;
46322;SDS011;32044;52.386;13.278;2023-12-14T09:21:15;24.58;;;15.43;;
46322;SDS011;32044;52.386;13.278;2023-12-14T09:23:45;24.55;;;15.18;;
46322;SDS011;32044;52.386;13.278;2023-12-14T09:26:13;24.58;;;15.65;;
46322;SDS011;32044;52.386;13.278;2023-12-14T09:28:41;23.13;;;15.45;;
46322;SDS011;32044;52.386;13.278;2023-12-14T09:31:09;25.63;;;15.68;;
46322;SDS011;32044;52.386;13.278;2023-12-14T09:33:38;23.33;;;16.25;;
46322;SDS011;32044;52.386;13.278;2023-12-14T09:36:06;26.08;;;16.25;;
46322;SDS011;32044;52.386;13.278;2023-12-14T09:38:33;26.67;;;17.08;;
46322;SDS011;32044;52.386;13.278;2023-12-14T09:41:02;25.15;;;16.45;;
46322;SDS011;32044;52.386;13.278;2023-12-14T09:43:30;29.13;;;17.38;;
46322;SDS011;32044;52.386;13.278;2023-12-14T09:45:58;25.88;;;17.40;;
46322;SDS011;32044;52.386;13.278;2023-12-14T09:48:27;27.88;;;18.33;;
46322;SDS011;32044;52.386;13.278;2023-12-14T09:50:57;30.35;;;18.92;;
46322;SDS011;32044;52.386;13.278;2023-12-14T09:53:24;32.00;;;17.75;;
46322;SDS011;32044;52.386;13.278;2023-12-14T09:55:51;26.45;;;17.33;;
46322;SDS011;32044;52.386;13.278;2023-12-14T09:58:19;28.85;;;18.30;;
46322;SDS011;32044;52.386;13.278;2023-12-14T10:00:46;28.05;;;18.02;;
46322;SDS011;32044;52.386;13.278;2023-12-14T10:03:17;26.60;;;17.58;;
46322;SDS011;32044;52.386;13.278;2023-12-14T10:05:45;27.33;;;17.45;;
46322;SDS011;32044;52.386;13.278;2023-12-14T10:08:14;28.00;;;17.42;;
46322;SDS011;32044;52.386;13.278;2023-12-14T10:10:43;29.63;;;18.80;;
46322;SDS011;32044;52.386;13.278;2023-12-14T10:13:10;32.00;;;18.15;;
46322;SDS011;32044;52.386;13.278;2023-12-14T10:18:09;26.70;;;16.80;;
46322;SDS011;32044;52.386;13.278;2023-12-14T10:20:37;24.80;;;16.40;;
46322;SDS011;32044;52.386;13.278;2023-12-14T10:23:06;27.58;;;17.05;;
46322;SDS011;32044;52.386;13.278;2023-12-14T10:25:36;27.42;;;16.75;;
46322;SDS011;32044;52.386;13.278;2023-12-14T10:28:04;26.70;;;15.98;;
46322;SDS011;32044;52.386;13.278;2023-12-14T10:30:31;26.58;;;15.63;;
46322;SDS011;32044;52.386;13.278;2023-12-14T10:33:02;26.25;;;16.02;;
46322;SDS011;32044;52.386;13.278;2023-12-14T10:35:32;22.95;;;15.13;;
46322;SDS011;32044;52.386;13.278;2023-12-14T10:38:01;29.40;;;16.80;;
46322;SDS011;32044;52.386;13.278;2023-12-14T10:40:30;24.90;;;16.25;;
46322;SDS011;32044;52.386;13.278;2023-12-14T10:42:59;24.27;;;15.52;;
46322;SDS011;32044;52.386;13.278;2023-12-14T10:45:29;26.95;;;16.73;;
46322;SDS011;32044;52.386;13.278;2023-12-14T10:47:57;30.38;;;17.25;;
46322;SDS011;32044;52.386;13.278;2023-12-14T10:50:26;29.45;;;17.48;;
46322;SDS011;32044;52.386;13.278;2023-12-14T10:52:55;26.15;;;16.23;;
46322;SDS011;32044;52.386;13.278;2023-12-14T10:55:24;29.90;;;17.52;;
46322;SDS011;32044;52.386;13.278;2023-12-14T10:57:52;29.25;;;16.77;;
46322;SDS011;32044;52.386;13.278;2023-12-14T11:00:21;24.98;;;15.70;;
46322;SDS011;32044;52.386;13.278;2023-12-14T11:02:49;26.02;;;14.60;;
46322;SDS011;32044;52.386;13.278;2023-12-14T11:05:16;25.17;;;14.77;;
46322;SDS011;32044;52.386;13.278;2023-12-14T11:07:49;23.90;;;14.13;;
46322;SDS011;32044;52.386;13.278;2023-12-14T11:10:20;23.88;;;13.38;;
46322;SDS011;32044;52.386;13.278;2023-12-14T11:12:54;23.80;;;13.77;;
46322;SDS011;32044;52.386;13.278;2023-12-14T11:15:23;21.90;;;12.82;;
46322;SDS011;32044;52.386;13.278;2023-12-14T11:20:47;21.65;;;13.60;;
46322;SDS011;32044;52.386;13.278;2023-12-14T11:23:15;21.42;;;12.75;;
46322;SDS011;32044;52.386;13.278;2023-12-14T11:25:44;20.65;;;12.90;;
46322;SDS011;32044;52.386;13.278;2023-12-14T11:28:22;19.02;;;12.73;;
46322;SDS011;32044;52.386;13.278;2023-12-14T11:30:54;19.45;;;12.68;;
46322;SDS011;32044;52.386;13.278;2023-12-14T11:33:22;20.67;;;12.95;;
46322;SDS011;32044;52.386;13.278;2023-12-14T11:35:50;21.48;;;12.73;;
46322;SDS011;32044;52.386;13.278;2023-12-14T11:38:18;17.88;;;12.40;;
46322;SDS011;32044;52.386;13.278;2023-12-14T11:40:47;20.05;;;13.30;;
46322;SDS011;32044;52.386;13.278;2023-12-14T11:43:15;18.55;;;12.40;;
46322;SDS011;32044;52.386;13.278;2023-12-14T11:45:43;21.45;;;13.95;;
46322;SDS011;32044;52.386;13.278;2023-12-14T11:48:12;18.88;;;12.45;;
46322;SDS011;32044;52.386;13.278;2023-12-14T11:50:40;19.98;;;12.68;;
46322;SDS011;32044;52.386;13.278;2023-12-14T11:53:09;20.27;;;13.15;;
46322;SDS011;32044;52.386;13.278;2023-12-14T11:55:37;17.70;;;11.55;;
46322;SDS011;32044;52.386;13.278;2023-12-14T11:58:06;17.90;;;12.02;;
46322;SDS011;32044;52.386;13.278;2023-12-14T12:00:33;15.30;;;11.73;;
46322;SDS011;32044;52.386;13.278;2023-12-14T12:03:08;13.65;;;8.57;;
46322;SDS011;32044;52.386;13.278;2023-12-14T12:05:37;21.17;;;13.38;;
46322;SDS011;32044;52.386;13.278;2023-12-14T12:08:04;18.58;;;12.50;;
46322;SDS011;32044;52.386;13.278;2023-12-14T12:10:32;19.70;;;13.35;;
46322;SDS011;32044;52.386;13.278;2023-12-14T12:13:00;21.38;;;14.88;;
46322;SDS011;32044;52.386;13.278;2023-12-14T12:15:28;20.15;;;13.25;;
46322;SDS011;32044;52.386;13.278;2023-12-14T12:17:55;20.33;;;13.43;;
46322;SDS011;32044;52.386;13.278;2023-12-14T12:20:23;21.05;;;13.27;;
46322;SDS011;32044;52.386;13.278;2023-12-14T12:22:53;24.02;;;15.18;;
46322;SDS011;32044;52.386;13.278;2023-12-14T12:25:21;19.92;;;14.23;;
46322;SDS011;32044;52.386;13.278;2023-12-14T12:27:50;19.33;;;13.23;;
46322;SDS011;32044;52.386;13.278;2023-12-14T12:30:17;20.33;;;13.50;;
46322;SDS011;32044;52.386;13.278;2023-12-14T12:32:45;22.15;;;14.32;;
46322;SDS011;32044;52.386;13.278;2023-12-14T12:35:13;22.55;;;14.93;;
46322;SDS011;32044;52.386;13.278;2023-12-14T12:37:41;21.05;;;13.45;;
46322;SDS011;32044;52.386;13.278;2023-12-14T12:40:10;20.33;;;14.10;;
46322;SDS011;32044;52.386;13.278;2023-12-14T12:42:38;20.63;;;13.82;;
46322;SDS011;32044;52.386;13.278;2023-12-14T12:45:05;22.83;;;15.60;;
46322;SDS011;32044;52.386;13.278;2023-12-14T12:47:33;27.60;;;18.13;;
46322;SDS011;32044;52.386;13.278;2023-12-14T12:50:01;25.55;;;17.55;;
46322;SDS011;32044;52.386;13.278;2023-12-14T12:52:29;29.73;;;19.83;;
46322;SDS011;32044;52.386;13.278;2023-12-14T12:54:56;28.75;;;18.85;;
46322;SDS011;32044;52.386;13.278;2023-12-14T12:57:25;29.58;;;19.83;;
46322;SDS011;32044;52.386;13.278;2023-12-14T12:59:53;32.15;;;21.13;;
46322;SDS011;32044;52.386;13.278;2023-12-14T13:02:20;33.47;;;21.63;;
46322;SDS011;32044;52.386;13.278;2023-12-14T13:04:47;36.97;;;20.65;;
46322;SDS011;32044;52.386;13.278;2023-12-14T13:07:16;36.33;;;21.17;;
46322;SDS011;32044;52.386;13.278;2023-12-14T13:09:44;31.92;;;20.42;;
46322;SDS011;32044;52.386;13.278;2023-12-14T13:12:12;33.35;;;20.77;;
46322;SDS011;32044;52.386;13.278;2023-12-14T13:14:41;34.28;;;20.50;;
46322;SDS011;32044;52.386;13.278;2023-12-14T13:17:08;34.17;;;20.52;;
46322;SDS011;32044;52.386;13.278;2023-12-14T13:19:36;34.05;;;20.25;;
46322;SDS011;32044;52.386;13.278;2023-12-14T13:22:03;37.28;;;21.38;;
46322;SDS011;32044;52.386;13.278;2023-12-14T13:24:31;31.38;;;18.75;;
46322;SDS011;32044;52.386;13.278;2023-12-14T13:26:58;35.10;;;20.42;;
46322;SDS011;32044;52.386;13.278;2023-12-14T13:29:26;36.85;;;20.63;;
46322;SDS011;32044;52.386;13.278;2023-12-14T13:31:54;30.70;;;19.08;;
46322;SDS011;32044;52.386;13.278;2023-12-14T13:34:22;35.95;;;21.30;;
46322;SDS011;32044;52.386;13.278;2023-12-14T13:36:49;37.42;;;20.48;;
46322;SDS011;32044;52.386;13.278;2023-12-14T13:39:17;35.13;;;21.33;;
46322;SDS011;32044;52.386;13.278;2023-12-14T13:41:45;32.97;;;19.70;;
46322;SDS011;32044;52.386;13.278;2023-12-14T13:44:16;34.85;;;20.67;;
46322;SDS011;32044;52.386;13.278;2023-12-14T13:46:43;31.60;;;19.20;;
46322;SDS011;32044;52.386;13.278;2023-12-14T13:49:12;30.95;;;19.92;;
46322;SDS011;32044;52.386;13.278;2023-12-14T13:51:40;28.98;;;18.25;;
46322;SDS011;32044;52.386;13.278;2023-12-14T13:54:07;30.98;;;19.17;;
46322;SDS011;32044;52.386;13.278;2023-12-14T13:56:35;27.95;;;19.30;;
46322;SDS011;32044;52.386;13.278;2023-12-14T13:59:02;36.55;;;21.08;;
46322;SDS011;32044;52.386;13.278;2023-12-14T14:01:30;28.90;;;18.80;;
46322;SDS011;32044;52.386;13.278;2023-12-14T14:03:58;29.27;;;18.23;;
46322;SDS011;32044;52.386;13.278;2023-12-14T14:06:26;30.55;;;19.38;;
46322;SDS011;32044;52.386;13.278;2023-12-14T14:08:54;31.45;;;19.77;;
46322;SDS011;32044;52.386;13.278;2023-12-14T14:11:21;32.30;;;19.05;;
46322;SDS011;32044;52.386;13.278;2023-12-14T14:13:58;28.20;;;18.23;;
46322;SDS011;32044;52.386;13.278;2023-12-14T14:16:26;32.70;;;20.05;;
46322;SDS011;32044;52.386;13.278;2023-12-14T14:18:53;30.40;;;20.60;;
46322;SDS011;32044;52.386;13.278;2023-12-14T14:21:21;31.10;;;20.30;;